MDT,Max TemperatureF,Mean TemperatureF,Min TemperatureF,Max Dew PointF,MeanDew PointF,Min DewpointF,Max Humidity, Mean Humidity, Min Humidity, Max Sea Level PressureIn, Mean Sea Level PressureIn, Min Sea Level PressureIn, Max VisibilityMiles, Mean VisibilityMiles, Min VisibilityMiles, Max Wind SpeedMPH, Mean Wind SpeedMPH, Max Gust SpeedMPH,PrecipitationIn, CloudCover, Events, WindDirDegrees
2013-3-1,36,32,27,31,27,21,92,84,72,30.65,30.57,30.50,8,4,2,6,1,,0.00,8,,264
2013-3-2,37,31,25,30,28,23,96,89,76,30.58,30.41,30.13,6,2,0,7,1,,0.00,2,Fog,227
2013-3-3,39,32,26,36,32,25,100,92,62,30.13,29.98,29.90,10,3,1,10,3,,0.09,7,Rain,349
2013-3-4,36,28,19,22,14,10,74,58,44,30.37,30.21,29.98,10,10,10,14,6,,0.00,1,,315
2013-3-5,30,18,6,18,13,3,89,74,58,30.41,30.26,30.07,10,10,10,7,2,,0.00,0,,340
2013-3-6,46,30,15,33,22,12,96,84,50,30.06,29.93,29.78,10,6,0,22,3,28,0.06,4,Fog-Rain-Snow,12
2013-3-7,36,33,30,32,30,28,96,87,76,30.05,30.00,29.96,10,8,2,12,5,,0.01,6,Snow,350
2013-3-8,37,32,28,34,31,28,100,92,86,29.94,29.86,29.77,10,5,0,5,1,,0.03,7,Fog-Snow,290
2013-3-9,39,32,25,26,23,18,93,73,53,30.30,30.03,29.79,10,9,2,22,6,,0.00,0,,360
2013-3-10,37,28,18,25,20,14,89,74,53,30.45,30.39,30.32,10,10,10,7,1,,0.00,0,,308
2013-3-11,46,34,25,32,27,21,85,74,47,30.35,30.25,30.16,10,10,10,7,2,,0.00,8,,57
2013-3-12,46,38,28,33,31,27,92,76,63,30.33,30.28,30.21,10,10,10,7,3,,0.00,2,,267
2013-3-13,50,36,23,37,29,21,100,86,63,30.43,30.35,30.30,10,7,0,6,1,,0.00,1,Fog,258
2013-3-14,50,38,26,38,31,25,100,87,61,30.35,30.28,30.16,10,5,0,7,2,,0.00,1,Fog,315
2013-3-15,55,42,30,42,35,30,100,83,59,30.15,30.09,30.00,10,6,2,7,3,,0.00,0,,315
2013-3-16,55,44,34,36,29,22,92,62,29,30.02,29.93,29.74,10,9,6,7,3,,0.00,1,,308
2013-3-17,46,39,30,35,22,12,79,54,32,30.05,29.89,29.73,10,10,9,26,11,40,0.00,5,Rain-Snow,303
2013-3-18,48,38,30,27,20,16,72,51,37,30.12,30.06,30.00,10,10,10,18,4,26,0.00,6,,210
2013-3-19,51,38,25,23,15,1,78,42,14,30.27,30.20,30.13,10,10,10,5,3,,0.00,0,,349
2013-3-20,53,41,30,41,33,23,89,75,57,30.13,29.94,29.71,10,10,10,14,3,,0.06,7,Rain,85
2013-3-21,50,37,28,37,26,18,88,68,41,30.03,29.88,29.67,10,8,1,29,11,36,0.05,6,Snow-Thunderstorm,316
2013-3-22,34,30,25,23,20,16,86,73,52,30.07,29.96,29.91,10,7,0,16,5,21,0.01,6,Fog-Snow,53
2013-3-23,36,27,19,23,18,12,93,78,44,30.28,30.16,30.03,10,8,2,12,4,,0.00,6,Snow,176
2013-3-24,37,26,17,20,16,11,84,66,36,30.30,30.25,30.18,10,10,9,7,3,,0.00,1,Snow,33
2013-3-25,46,32,19,26,17,10,78,55,34,30.30,30.19,30.06,10,10,10,6,3,,0.00,1,,350
2013-3-26,57,42,28,32,27,24,85,65,32,30.05,29.96,29.87,10,10,10,14,3,,0.00,3,,335
2013-3-27,61,45,30,35,29,24,92,62,26,30.05,29.98,29.94,10,10,10,6,1,,0.00,3,,274
2013-3-28,64,48,33,37,31,28,85,57,26,30.05,30.00,29.93,10,10,10,14,4,,0.00,3,,310
2013-3-29,62,48,33,37,34,30,92,60,34,30.17,30.11,30.03,10,10,10,28,5,36,0.00,3,Rain,139
2013-3-30,66,50,35,36,32,28,89,55,25,30.18,30.14,30.08,10,10,10,9,2,,0.00,2,,352
2013-3-31,66,47,28,31,26,19,85,49,16,30.13,30.02,29.88,10,10,10,8,3,,0.00,0,,323